ZSP weather

St. Paul Airport
St. Paul, Alberta, Canada

Public forecast

Using degrees Celsius for public forecast. Weather courtesy of forecast.io.

Closest aviation weather report (METAR) to St. Paul Airport

Closest report is CFB Cold Lake, 45.9 nm (85.0 km) ENE. Retrieved 2020/02/17 00:18 UTC (8 minutes ago):

CYOD 170018Z 35009KT 15SM -SN OVC026 M12/M17 A2986 RMK SC8 SLP157

Closest aviation forecast (TAF) to St. Paul Airport

Closest forecast is CFB Cold Lake, 45.9 nm (85.0 km) ENE. Retrieved 2020/02/16 18:35 UTC (6 hours ago):

TAF CYOD 161730Z 1618/1718 36005KT P6SM FEW020 SCT040 BKN080 TEMPO 1618/1715 5SM -SN BKN020 OVC040 FM171500 34008KT P6SM SCT030 BKN140 TEMPO 1715/1718 BKN030 OVC140 RMK NXT FCST BY 170000Z